sensor_id;sensor_type;location;lat;lon;timestamp;temperature;humidity
52565;DHT22;38460;53.106;7.004;2023-01-26T00:01:55;0.10;99.90
52565;DHT22;38460;53.106;7.004;2023-01-26T00:04:21;-0.50;99.90
52565;DHT22;38460;53.106;7.004;2023-01-26T00:06:47;-0.50;99.90
52565;DHT22;38460;53.106;7.004;2023-01-26T00:09:13;-0.60;99.90
52565;DHT22;38460;53.106;7.004;2023-01-26T00:11:39;-0.50;99.90
52565;DHT22;38460;53.106;7.004;2023-01-26T00:14:05;-0.50;99.90
52565;DHT22;38460;53.106;7.004;2023-01-26T00:16:31;-0.50;99.90
52565;DHT22;38460;53.106;7.004;2023-01-26T00:18:57;-0.60;99.90
52565;DHT22;38460;53.106;7.004;2023-01-26T00:21:23;-0.50;99.90
52565;DHT22;38460;53.106;7.004;2023-01-26T00:23:50;0.10;99.90
52565;DHT22;38460;53.106;7.004;2023-01-26T00:26:21;-0.50;99.90
52565;DHT22;38460;53.106;7.004;2023-01-26T00:28:47;-0.50;99.90
52565;DHT22;38460;53.106;7.004;2023-01-26T00:31:15;-0.50;99.90
52565;DHT22;38460;53.106;7.004;2023-01-26T00:33:41;-0.40;99.90
52565;DHT22;38460;53.106;7.004;2023-01-26T00:36:08;0.60;99.90
52565;DHT22;38460;53.106;7.004;2023-01-26T00:38:34;-0.50;99.90
52565;DHT22;38460;53.106;7.004;2023-01-26T00:41:00;-0.50;99.90
52565;DHT22;38460;53.106;7.004;2023-01-26T00:43:26;-0.10;99.90
52565;DHT22;38460;53.106;7.004;2023-01-26T00:45:51;-0.50;99.90
52565;DHT22;38460;53.106;7.004;2023-01-26T00:48:17;-0.50;99.90
52565;DHT22;38460;53.106;7.004;2023-01-26T00:50:43;-0.50;99.90
52565;DHT22;38460;53.106;7.004;2023-01-26T00:53:09;-0.50;99.90
52565;DHT22;38460;53.106;7.004;2023-01-26T00:55:35;-0.50;99.90
52565;DHT22;38460;53.106;7.004;2023-01-26T00:58:02;-0.50;99.90
52565;DHT22;38460;53.106;7.004;2023-01-26T01:00:29;-0.40;99.90
52565;DHT22;38460;53.106;7.004;2023-01-26T01:02:56;-0.50;99.90
52565;DHT22;38460;53.106;7.004;2023-01-26T01:05:23;0.10;99.90
52565;DHT22;38460;53.106;7.004;2023-01-26T01:07:49;-0.40;99.90
52565;DHT22;38460;53.106;7.004;2023-01-26T01:10:15;-0.40;99.90
52565;DHT22;38460;53.106;7.004;2023-01-26T01:12:41;-0.40;99.90
52565;DHT22;38460;53.106;7.004;2023-01-26T01:15:07;-0.50;99.90
52565;DHT22;38460;53.106;7.004;2023-01-26T01:17:33;-0.50;99.90
52565;DHT22;38460;53.106;7.004;2023-01-26T01:20:02;-0.50;99.90
52565;DHT22;38460;53.106;7.004;2023-01-26T01:22:28;-0.40;99.90
52565;DHT22;38460;53.106;7.004;2023-01-26T01:24:54;-0.40;99.90
52565;DHT22;38460;53.106;7.004;2023-01-26T01:27:20;-0.40;99.90
52565;DHT22;38460;53.106;7.004;2023-01-26T01:29:45;-0.40;99.90
52565;DHT22;38460;53.106;7.004;2023-01-26T01:32:11;-0.40;99.90
52565;DHT22;38460;53.106;7.004;2023-01-26T01:34:37;-0.40;99.90
52565;DHT22;38460;53.106;7.004;2023-01-26T01:37:02;-0.40;99.90
52565;DHT22;38460;53.106;7.004;2023-01-26T01:39:28;-0.40;99.90
52565;DHT22;38460;53.106;7.004;2023-01-26T01:41:54;-0.40;99.90
52565;DHT22;38460;53.106;7.004;2023-01-26T01:44:22;-0.40;99.90
52565;DHT22;38460;53.106;7.004;2023-01-26T01:47:11;-0.40;99.90
52565;DHT22;38460;53.106;7.004;2023-01-26T01:49:45;-0.40;99.90
52565;DHT22;38460;53.106;7.004;2023-01-26T01:52:16;-0.30;99.90
52565;DHT22;38460;53.106;7.004;2023-01-26T01:54:49;-0.30;99.90
52565;DHT22;38460;53.106;7.004;2023-01-26T01:57:26;-0.30;99.90
52565;DHT22;38460;53.106;7.004;2023-01-26T02:00:06;-0.20;99.90
52565;DHT22;38460;53.106;7.004;2023-01-26T02:02:35;0.90;99.90
52565;DHT22;38460;53.106;7.004;2023-01-26T02:05:12;-0.30;99.90
52565;DHT22;38460;53.106;7.004;2023-01-26T02:07:43;-0.30;99.90
52565;DHT22;38460;53.106;7.004;2023-01-26T02:10:09;-0.20;99.90
52565;DHT22;38460;53.106;7.004;2023-01-26T02:12:51;-0.30;99.90
52565;DHT22;38460;53.106;7.004;2023-01-26T02:15:20;-0.30;99.90
52565;DHT22;38460;53.106;7.004;2023-01-26T02:17:45;-0.30;99.90
52565;DHT22;38460;53.106;7.004;2023-01-26T02:20:16;-0.30;99.90
52565;DHT22;38460;53.106;7.004;2023-01-26T02:23:02;-0.30;99.90
52565;DHT22;38460;53.106;7.004;2023-01-26T02:28:15;-0.30;99.90
52565;DHT22;38460;53.106;7.004;2023-01-26T02:30:41;-0.30;99.90
52565;DHT22;38460;53.106;7.004;2023-01-26T02:33:07;-0.30;99.90
52565;DHT22;38460;53.106;7.004;2023-01-26T02:35:38;0.00;99.90
52565;DHT22;38460;53.106;7.004;2023-01-26T02:38:06;-0.30;99.90
52565;DHT22;38460;53.106;7.004;2023-01-26T02:43:05;-0.30;99.90
52565;DHT22;38460;53.106;7.004;2023-01-26T02:45:32;-0.20;99.90
52565;DHT22;38460;53.106;7.004;2023-01-26T02:47:58;-0.10;99.90
52565;DHT22;38460;53.106;7.004;2023-01-26T02:50:29;0.30;99.90
52565;DHT22;38460;53.106;7.004;2023-01-26T02:52:55;-0.30;99.90
52565;DHT22;38460;53.106;7.004;2023-01-26T02:55:21;-0.20;99.90
52565;DHT22;38460;53.106;7.004;2023-01-26T02:57:48;-0.20;99.90
52565;DHT22;38460;53.106;7.004;2023-01-26T03:00:29;-0.20;99.90
52565;DHT22;38460;53.106;7.004;2023-01-26T03:02:57;-0.20;99.90
52565;DHT22;38460;53.106;7.004;2023-01-26T03:05:25;-0.20;99.90
52565;DHT22;38460;53.106;7.004;2023-01-26T03:07:50;-0.20;99.90
52565;DHT22;38460;53.106;7.004;2023-01-26T03:10:16;-0.20;99.90
52565;DHT22;38460;53.106;7.004;2023-01-26T03:12:43;-0.20;99.90
52565;DHT22;38460;53.106;7.004;2023-01-26T03:15:10;-0.20;99.90
52565;DHT22;38460;53.106;7.004;2023-01-26T03:18:06;-0.20;99.90
52565;DHT22;38460;53.106;7.004;2023-01-26T03:20:50;-0.10;99.90
52565;DHT22;38460;53.106;7.004;2023-01-26T03:23:35;0.00;99.90
52565;DHT22;38460;53.106;7.004;2023-01-26T03:26:19;-0.20;99.90
52565;DHT22;38460;53.106;7.004;2023-01-26T03:29:04;-0.10;99.90
52565;DHT22;38460;53.106;7.004;2023-01-26T03:31:30;-0.10;99.90
52565;DHT22;38460;53.106;7.004;2023-01-26T03:33:55;-0.10;99.90
52565;DHT22;38460;53.106;7.004;2023-01-26T03:36:22;0.40;99.90
52565;DHT22;38460;53.106;7.004;2023-01-26T03:38:48;-0.10;99.90
52565;DHT22;38460;53.106;7.004;2023-01-26T03:41:14;-0.10;99.90
52565;DHT22;38460;53.106;7.004;2023-01-26T03:43:58;0.00;99.90
52565;DHT22;38460;53.106;7.004;2023-01-26T03:46:42;-0.10;99.90
52565;DHT22;38460;53.106;7.004;2023-01-26T03:49:26;0.10;99.90
52565;DHT22;38460;53.106;7.004;2023-01-26T03:52:10;0.10;99.90
52565;DHT22;38460;53.106;7.004;2023-01-26T03:54:54;-0.10;99.90
52565;DHT22;38460;53.106;7.004;2023-01-26T03:57:38;-0.10;99.90
52565;DHT22;38460;53.106;7.004;2023-01-26T04:00:04;-0.10;99.90
52565;DHT22;38460;53.106;7.004;2023-01-26T04:02:30;-0.10;99.90
52565;DHT22;38460;53.106;7.004;2023-01-26T04:05:15;0.00;99.90
52565;DHT22;38460;53.106;7.004;2023-01-26T04:08:03;-0.10;99.90
52565;DHT22;38460;53.106;7.004;2023-01-26T04:10:48;0.00;99.90
52565;DHT22;38460;53.106;7.004;2023-01-26T04:13:17;0.70;99.90
52565;DHT22;38460;53.106;7.004;2023-01-26T04:16:02;0.00;99.90
52565;DHT22;38460;53.106;7.004;2023-01-26T04:18:47;-0.10;99.90
52565;DHT22;38460;53.106;7.004;2023-01-26T04:21:31;0.00;99.90
52565;DHT22;38460;53.106;7.004;2023-01-26T04:23:59;0.00;99.90
52565;DHT22;38460;53.106;7.004;2023-01-26T04:26:28;0.00;99.90
52565;DHT22;38460;53.106;7.004;2023-01-26T04:29:06;0.00;99.90
52565;DHT22;38460;53.106;7.004;2023-01-26T04:31:33;0.00;99.90
52565;DHT22;38460;53.106;7.004;2023-01-26T04:34:04;0.00;99.90
52565;DHT22;38460;53.106;7.004;2023-01-26T04:36:30;0.00;99.90
52565;DHT22;38460;53.106;7.004;2023-01-26T04:38:56;0.00;99.90
52565;DHT22;38460;53.106;7.004;2023-01-26T04:41:22;0.00;99.90
52565;DHT22;38460;53.106;7.004;2023-01-26T04:43:49;0.00;99.90
52565;DHT22;38460;53.106;7.004;2023-01-26T04:46:14;0.10;99.90
52565;DHT22;38460;53.106;7.004;2023-01-26T04:48:40;0.00;99.90
52565;DHT22;38460;53.106;7.004;2023-01-26T04:51:11;0.00;99.90
52565;DHT22;38460;53.106;7.004;2023-01-26T04:53:38;0.00;99.90
52565;DHT22;38460;53.106;7.004;2023-01-26T04:56:04;0.00;99.90
52565;DHT22;38460;53.106;7.004;2023-01-26T04:58:31;0.00;99.90
52565;DHT22;38460;53.106;7.004;2023-01-26T05:00:57;0.00;99.90
52565;DHT22;38460;53.106;7.004;2023-01-26T05:03:24;0.00;99.90
52565;DHT22;38460;53.106;7.004;2023-01-26T05:05:52;0.00;99.90
52565;DHT22;38460;53.106;7.004;2023-01-26T05:08:19;0.10;99.90
52565;DHT22;38460;53.106;7.004;2023-01-26T05:10:46;0.10;99.90
52565;DHT22;38460;53.106;7.004;2023-01-26T05:13:12;0.10;99.90
52565;DHT22;38460;53.106;7.004;2023-01-26T05:15:38;0.10;99.90
52565;DHT22;38460;53.106;7.004;2023-01-26T05:18:04;0.10;99.90
52565;DHT22;38460;53.106;7.004;2023-01-26T05:20:31;0.10;99.90
52565;DHT22;38460;53.106;7.004;2023-01-26T05:22:57;0.10;99.90
52565;DHT22;38460;53.106;7.004;2023-01-26T05:25:23;0.10;99.90
52565;DHT22;38460;53.106;7.004;2023-01-26T05:27:49;0.10;99.90
52565;DHT22;38460;53.106;7.004;2023-01-26T05:30:15;0.80;99.90
52565;DHT22;38460;53.106;7.004;2023-01-26T05:32:41;0.10;99.90
52565;DHT22;38460;53.106;7.004;2023-01-26T05:35:07;0.30;99.90
52565;DHT22;38460;53.106;7.004;2023-01-26T05:37:33;0.10;99.90
52565;DHT22;38460;53.106;7.004;2023-01-26T05:39:59;0.20;99.90
52565;DHT22;38460;53.106;7.004;2023-01-26T05:42:26;0.10;99.90
52565;DHT22;38460;53.106;7.004;2023-01-26T05:44:52;0.10;99.90
52565;DHT22;38460;53.106;7.004;2023-01-26T05:47:18;0.20;99.90
52565;DHT22;38460;53.106;7.004;2023-01-26T05:49:44;0.10;99.90
52565;DHT22;38460;53.106;7.004;2023-01-26T05:52:15;0.20;99.90
52565;DHT22;38460;53.106;7.004;2023-01-26T05:54:41;0.20;99.90
52565;DHT22;38460;53.106;7.004;2023-01-26T05:57:08;0.20;99.90
52565;DHT22;38460;53.106;7.004;2023-01-26T05:59:33;0.20;99.90
52565;DHT22;38460;53.106;7.004;2023-01-26T06:01:59;0.80;99.90
52565;DHT22;38460;53.106;7.004;2023-01-26T06:04:26;0.20;99.90
52565;DHT22;38460;53.106;7.004;2023-01-26T06:06:56;0.20;99.90
52565;DHT22;38460;53.106;7.004;2023-01-26T06:09:22;0.20;99.90
52565;DHT22;38460;53.106;7.004;2023-01-26T06:11:48;0.30;99.90
52565;DHT22;38460;53.106;7.004;2023-01-26T06:14:15;0.20;99.90
52565;DHT22;38460;53.106;7.004;2023-01-26T06:16:41;0.20;99.90
52565;DHT22;38460;53.106;7.004;2023-01-26T06:19:08;0.20;99.90
52565;DHT22;38460;53.106;7.004;2023-01-26T06:21:35;0.20;99.90
52565;DHT22;38460;53.106;7.004;2023-01-26T06:24:01;0.20;99.90
52565;DHT22;38460;53.106;7.004;2023-01-26T06:26:26;0.70;99.90
52565;DHT22;38460;53.106;7.004;2023-01-26T06:28:52;0.20;99.90
52565;DHT22;38460;53.106;7.004;2023-01-26T06:31:18;0.20;99.90
52565;DHT22;38460;53.106;7.004;2023-01-26T06:33:45;0.20;99.90
52565;DHT22;38460;53.106;7.004;2023-01-26T06:36:13;0.20;99.90
52565;DHT22;38460;53.106;7.004;2023-01-26T06:38:47;0.20;99.90
52565;DHT22;38460;53.106;7.004;2023-01-26T06:41:14;0.20;99.90
52565;DHT22;38460;53.106;7.004;2023-01-26T06:43:47;0.20;99.90
52565;DHT22;38460;53.106;7.004;2023-01-26T06:46:14;0.20;99.90
52565;DHT22;38460;53.106;7.004;2023-01-26T06:48:40;0.80;99.90
52565;DHT22;38460;53.106;7.004;2023-01-26T06:51:42;0.20;99.90
52565;DHT22;38460;53.106;7.004;2023-01-26T06:54:10;0.20;99.90
52565;DHT22;38460;53.106;7.004;2023-01-26T06:56:36;0.20;99.90
52565;DHT22;38460;53.106;7.004;2023-01-26T06:59:03;0.20;99.90
52565;DHT22;38460;53.106;7.004;2023-01-26T07:01:32;0.20;99.90
52565;DHT22;38460;53.106;7.004;2023-01-26T07:04:00;0.20;99.90
52565;DHT22;38460;53.106;7.004;2023-01-26T07:06:26;0.20;99.90
52565;DHT22;38460;53.106;7.004;2023-01-26T07:08:52;0.20;99.90
52565;DHT22;38460;53.106;7.004;2023-01-26T07:11:18;0.20;99.90
52565;DHT22;38460;53.106;7.004;2023-01-26T07:13:45;0.20;99.90
52565;DHT22;38460;53.106;7.004;2023-01-26T07:16:13;0.20;99.90
52565;DHT22;38460;53.106;7.004;2023-01-26T07:18:39;1.30;99.90
52565;DHT22;38460;53.106;7.004;2023-01-26T07:21:13;0.20;99.90
52565;DHT22;38460;53.106;7.004;2023-01-26T07:23:39;0.20;99.90
52565;DHT22;38460;53.106;7.004;2023-01-26T07:26:05;0.20;99.90
52565;DHT22;38460;53.106;7.004;2023-01-26T07:28:31;0.30;99.90
52565;DHT22;38460;53.106;7.004;2023-01-26T07:30:59;0.30;99.90
52565;DHT22;38460;53.106;7.004;2023-01-26T07:33:27;0.60;99.90
52565;DHT22;38460;53.106;7.004;2023-01-26T07:35:57;0.30;99.90
52565;DHT22;38460;53.106;7.004;2023-01-26T07:38:23;0.30;99.90
52565;DHT22;38460;53.106;7.004;2023-01-26T07:40:50;0.30;99.90
52565;DHT22;38460;53.106;7.004;2023-01-26T07:43:16;0.40;99.90
52565;DHT22;38460;53.106;7.004;2023-01-26T07:45:46;0.40;99.90
52565;DHT22;38460;53.106;7.004;2023-01-26T07:48:12;0.50;99.90
52565;DHT22;38460;53.106;7.004;2023-01-26T07:50:39;0.60;99.90
52565;DHT22;38460;53.106;7.004;2023-01-26T07:53:05;0.70;99.90
52565;DHT22;38460;53.106;7.004;2023-01-26T07:55:34;0.70;99.90
52565;DHT22;38460;53.106;7.004;2023-01-26T07:58:00;0.80;99.90
52565;DHT22;38460;53.106;7.004;2023-01-26T08:00:26;0.80;99.90
52565;DHT22;38460;53.106;7.004;2023-01-26T08:02:51;0.90;99.90
52565;DHT22;38460;53.106;7.004;2023-01-26T08:05:17;1.00;99.90
52565;DHT22;38460;53.106;7.004;2023-01-26T08:07:43;1.00;99.90
52565;DHT22;38460;53.106;7.004;2023-01-26T08:10:09;1.10;99.90
52565;DHT22;38460;53.106;7.004;2023-01-26T08:12:37;1.10;99.90
52565;DHT22;38460;53.106;7.004;2023-01-26T08:15:03;1.10;99.90
52565;DHT22;38460;53.106;7.004;2023-01-26T08:17:30;1.20;99.90
52565;DHT22;38460;53.106;7.004;2023-01-26T08:19:58;1.20;99.90
52565;DHT22;38460;53.106;7.004;2023-01-26T08:22:24;1.50;99.90
52565;DHT22;38460;53.106;7.004;2023-01-26T08:24:49;1.20;99.90
52565;DHT22;38460;53.106;7.004;2023-01-26T08:27:15;1.10;99.90
52565;DHT22;38460;53.106;7.004;2023-01-26T08:29:41;0.00;99.90
52565;DHT22;38460;53.106;7.004;2023-01-26T08:32:07;1.10;99.90
52565;DHT22;38460;53.106;7.004;2023-01-26T08:34:34;1.10;99.90
52565;DHT22;38460;53.106;7.004;2023-01-26T08:37:00;1.10;99.90
52565;DHT22;38460;53.106;7.004;2023-01-26T08:39:27;1.10;99.90
52565;DHT22;38460;53.106;7.004;2023-01-26T08:41:53;1.10;99.90
52565;DHT22;38460;53.106;7.004;2023-01-26T08:44:19;1.20;99.90
52565;DHT22;38460;53.106;7.004;2023-01-26T08:46:45;1.10;99.90
52565;DHT22;38460;53.106;7.004;2023-01-26T08:49:11;1.20;99.90
52565;DHT22;38460;53.106;7.004;2023-01-26T08:51:37;1.10;99.90
52565;DHT22;38460;53.106;7.004;2023-01-26T08:54:06;1.10;99.90
52565;DHT22;38460;53.106;7.004;2023-01-26T08:56:35;1.20;99.90
52565;DHT22;38460;53.106;7.004;2023-01-26T08:59:01;1.40;99.90
52565;DHT22;38460;53.106;7.004;2023-01-26T09:01:27;1.20;99.90
52565;DHT22;38460;53.106;7.004;2023-01-26T09:03:53;1.30;99.90
52565;DHT22;38460;53.106;7.004;2023-01-26T09:06:20;1.40;99.90
52565;DHT22;38460;53.106;7.004;2023-01-26T09:08:46;1.40;99.90
52565;DHT22;38460;53.106;7.004;2023-01-26T09:11:12;1.50;99.90
52565;DHT22;38460;53.106;7.004;2023-01-26T09:13:38;1.60;99.90
52565;DHT22;38460;53.106;7.004;2023-01-26T09:16:14;1.60;99.90
52565;DHT22;38460;53.106;7.004;2023-01-26T09:18:40;1.70;99.90
52565;DHT22;38460;53.106;7.004;2023-01-26T09:21:07;1.80;99.90
52565;DHT22;38460;53.106;7.004;2023-01-26T09:23:34;1.80;99.90
52565;DHT22;38460;53.106;7.004;2023-01-26T09:26:01;1.90;99.90
52565;DHT22;38460;53.106;7.004;2023-01-26T09:28:27;2.00;99.90
52565;DHT22;38460;53.106;7.004;2023-01-26T09:30:53;2.10;99.90
52565;DHT22;38460;53.106;7.004;2023-01-26T09:33:19;2.20;99.90
52565;DHT22;38460;53.106;7.004;2023-01-26T09:35:48;2.20;99.90
52565;DHT22;38460;53.106;7.004;2023-01-26T09:38:13;2.30;99.90
52565;DHT22;38460;53.106;7.004;2023-01-26T09:40:47;2.30;99.90
52565;DHT22;38460;53.106;7.004;2023-01-26T09:43:37;2.40;99.90
52565;DHT22;38460;53.106;7.004;2023-01-26T09:51:45;2.60;99.90
52565;DHT22;38460;53.106;7.004;2023-01-26T09:57:09;2.80;99.90
52565;DHT22;38460;53.106;7.004;2023-01-26T09:59:52;2.90;99.90
52565;DHT22;38460;53.106;7.004;2023-01-26T10:02:42;3.00;99.90
52565;DHT22;38460;53.106;7.004;2023-01-26T10:05:19;3.10;99.90
52565;DHT22;38460;53.106;7.004;2023-01-26T10:07:48;3.20;99.90
52565;DHT22;38460;53.106;7.004;2023-01-26T10:10:31;3.20;99.90
52565;DHT22;38460;53.106;7.004;2023-01-26T10:12:59;3.30;99.90
52565;DHT22;38460;53.106;7.004;2023-01-26T10:15:36;3.30;99.90
52565;DHT22;38460;53.106;7.004;2023-01-26T10:18:14;3.40;99.90
52565;DHT22;38460;53.106;7.004;2023-01-26T10:20:46;3.50;99.90
52565;DHT22;38460;53.106;7.004;2023-01-26T10:23:21;3.50;99.90
52565;DHT22;38460;53.106;7.004;2023-01-26T10:25:50;3.60;99.90
52565;DHT22;38460;53.106;7.004;2023-01-26T10:28:30;3.60;99.90
52565;DHT22;38460;53.106;7.004;2023-01-26T10:30:57;3.70;99.90
52565;DHT22;38460;53.106;7.004;2023-01-26T10:33:33;3.80;99.90
52565;DHT22;38460;53.106;7.004;2023-01-26T10:36:00;4.00;99.90
52565;DHT22;38460;53.106;7.004;2023-01-26T10:41:22;4.00;99.90
52565;DHT22;38460;53.106;7.004;2023-01-26T10:44:03;4.20;99.90
52565;DHT22;38460;53.106;7.004;2023-01-26T10:46:43;4.20;99.90
52565;DHT22;38460;53.106;7.004;2023-01-26T10:51:42;4.40;99.90
52565;DHT22;38460;53.106;7.004;2023-01-26T10:54:23;4.50;99.90
52565;DHT22;38460;53.106;7.004;2023-01-26T10:57:02;4.60;99.90
52565;DHT22;38460;53.106;7.004;2023-01-26T10:59:41;4.70;99.90
52565;DHT22;38460;53.106;7.004;2023-01-26T11:04:37;4.90;99.90
52565;DHT22;38460;53.106;7.004;2023-01-26T11:07:38;5.00;99.90
52565;DHT22;38460;53.106;7.004;2023-01-26T11:10:36;5.20;99.90
52565;DHT22;38460;53.106;7.004;2023-01-26T11:13:19;5.40;99.90
52565;DHT22;38460;53.106;7.004;2023-01-26T11:16:00;5.50;99.90
52565;DHT22;38460;53.106;7.004;2023-01-26T11:23:59;5.70;99.90
52565;DHT22;38460;53.106;7.004;2023-01-26T11:37:43;6.20;99.90
52565;DHT22;38460;53.106;7.004;2023-01-26T11:52:10;6.50;99.90
52565;DHT22;38460;53.106;7.004;2023-01-26T12:02:46;6.70;99.90
52565;DHT22;38460;53.106;7.004;2023-01-26T12:05:26;6.70;99.90
52565;DHT22;38460;53.106;7.004;2023-01-26T12:08:24;6.70;99.90
52565;DHT22;38460;53.106;7.004;2023-01-26T12:14:01;6.70;99.90
52565;DHT22;38460;53.106;7.004;2023-01-26T12:22:02;6.70;99.90
52565;DHT22;38460;53.106;7.004;2023-01-26T12:24:44;6.80;99.90
52565;DHT22;38460;53.106;7.004;2023-01-26T12:27:16;6.80;99.90
52565;DHT22;38460;53.106;7.004;2023-01-26T12:29:50;6.80;99.90
52565;DHT22;38460;53.106;7.004;2023-01-26T12:32:17;6.80;99.90
52565;DHT22;38460;53.106;7.004;2023-01-26T12:34:43;6.90;99.90
52565;DHT22;38460;53.106;7.004;2023-01-26T12:37:40;6.90;99.90
52565;DHT22;38460;53.106;7.004;2023-01-26T12:40:21;7.00;99.90
52565;DHT22;38460;53.106;7.004;2023-01-26T12:43:06;7.10;99.90
52565;DHT22;38460;53.106;7.004;2023-01-26T12:45:39;7.10;99.90
52565;DHT22;38460;53.106;7.004;2023-01-26T12:48:14;7.20;99.90
52565;DHT22;38460;53.106;7.004;2023-01-26T12:50:57;7.10;99.90
52565;DHT22;38460;53.106;7.004;2023-01-26T12:53:47;7.10;99.90
52565;DHT22;38460;53.106;7.004;2023-01-26T12:56:34;7.20;99.90
52565;DHT22;38460;53.106;7.004;2023-01-26T12:59:20;7.20;99.90
52565;DHT22;38460;53.106;7.004;2023-01-26T13:01:48;7.20;99.90
52565;DHT22;38460;53.106;7.004;2023-01-26T13:04:16;7.20;99.90
52565;DHT22;38460;53.106;7.004;2023-01-26T13:06:42;7.20;99.90
52565;DHT22;38460;53.106;7.004;2023-01-26T13:09:25;7.20;99.90
52565;DHT22;38460;53.106;7.004;2023-01-26T13:11:58;7.20;99.90
52565;DHT22;38460;53.106;7.004;2023-01-26T13:24:56;7.10;99.90
52565;DHT22;38460;53.106;7.004;2023-01-26T13:35:28;7.10;99.90
52565;DHT22;38460;53.106;7.004;2023-01-26T13:38:17;7.10;99.90
52565;DHT22;38460;53.106;7.004;2023-01-26T13:40:46;7.10;99.90
52565;DHT22;38460;53.106;7.004;2023-01-26T13:54:09;7.00;99.90
52565;DHT22;38460;53.106;7.004;2023-01-26T13:56:38;7.00;99.90
52565;DHT22;38460;53.106;7.004;2023-01-26T14:01:33;7.00;99.90
52565;DHT22;38460;53.106;7.004;2023-01-26T14:04:05;6.90;99.90
52565;DHT22;38460;53.106;7.004;2023-01-26T14:06:32;6.90;99.90
52565;DHT22;38460;53.106;7.004;2023-01-26T14:08:59;6.90;99.90
52565;DHT22;38460;53.106;7.004;2023-01-26T14:11:28;6.90;99.90
52565;DHT22;38460;53.106;7.004;2023-01-26T14:13:57;6.90;99.90
52565;DHT22;38460;53.106;7.004;2023-01-26T14:16:30;6.80;99.90
52565;DHT22;38460;53.106;7.004;2023-01-26T14:19:14;6.80;99.90
52565;DHT22;38460;53.106;7.004;2023-01-26T14:21:59;6.80;99.90
52565;DHT22;38460;53.106;7.004;2023-01-26T14:24:30;6.70;99.90
52565;DHT22;38460;53.106;7.004;2023-01-26T14:26:56;6.70;99.90
52565;DHT22;38460;53.106;7.004;2023-01-26T14:29:24;6.70;99.90
52565;DHT22;38460;53.106;7.004;2023-01-26T14:31:52;6.70;99.90
52565;DHT22;38460;53.106;7.004;2023-01-26T14:34:27;6.70;99.90
52565;DHT22;38460;53.106;7.004;2023-01-26T14:37:16;6.60;99.90
52565;DHT22;38460;53.106;7.004;2023-01-26T14:39:43;6.60;99.90
52565;DHT22;38460;53.106;7.004;2023-01-26T14:42:14;6.60;99.90
52565;DHT22;38460;53.106;7.004;2023-01-26T14:44:41;6.60;99.90
52565;DHT22;38460;53.106;7.004;2023-01-26T14:50:28;6.50;99.90
52565;DHT22;38460;53.106;7.004;2023-01-26T14:52:37;6.60;99.90
52565;DHT22;38460;53.106;7.004;2023-01-26T14:55:25;6.50;99.90
52565;DHT22;38460;53.106;7.004;2023-01-26T14:57:52;6.50;99.90
52565;DHT22;38460;53.106;7.004;2023-01-26T15:00:26;6.50;99.90
52565;DHT22;38460;53.106;7.004;2023-01-26T15:02:54;6.50;99.90
52565;DHT22;38460;53.106;7.004;2023-01-26T15:05:24;6.50;99.90
52565;DHT22;38460;53.106;7.004;2023-01-26T15:08:03;6.50;99.90
52565;DHT22;38460;53.106;7.004;2023-01-26T15:10:37;6.40;99.90
52565;DHT22;38460;53.106;7.004;2023-01-26T15:15:40;6.40;99.90
52565;DHT22;38460;53.106;7.004;2023-01-26T15:20:43;6.30;99.90
52565;DHT22;38460;53.106;7.004;2023-01-26T15:23:21;6.30;99.90
52565;DHT22;38460;53.106;7.004;2023-01-26T15:25:48;6.20;99.90
52565;DHT22;38460;53.106;7.004;2023-01-26T15:28:23;6.20;99.90
52565;DHT22;38460;53.106;7.004;2023-01-26T15:30:53;6.20;99.90
52565;DHT22;38460;53.106;7.004;2023-01-26T15:33:45;6.10;99.90
52565;DHT22;38460;53.106;7.004;2023-01-26T15:36:27;6.10;99.90
52565;DHT22;38460;53.106;7.004;2023-01-26T15:39:03;6.00;99.90
52565;DHT22;38460;53.106;7.004;2023-01-26T15:41:34;6.00;99.90
52565;DHT22;38460;53.106;7.004;2023-01-26T15:43:59;5.90;99.90
52565;DHT22;38460;53.106;7.004;2023-01-26T15:46:25;5.90;99.90
52565;DHT22;38460;53.106;7.004;2023-01-26T15:48:51;5.80;99.90
52565;DHT22;38460;53.106;7.004;2023-01-26T15:51:17;5.80;99.90
52565;DHT22;38460;53.106;7.004;2023-01-26T15:53:44;5.70;99.90
52565;DHT22;38460;53.106;7.004;2023-01-26T15:56:14;5.70;99.90
52565;DHT22;38460;53.106;7.004;2023-01-26T15:58:40;5.60;99.90
52565;DHT22;38460;53.106;7.004;2023-01-26T16:01:08;5.50;99.90
52565;DHT22;38460;53.106;7.004;2023-01-26T16:03:34;5.50;99.90
52565;DHT22;38460;53.106;7.004;2023-01-26T16:06:00;5.40;99.90
52565;DHT22;38460;53.106;7.004;2023-01-26T16:08:26;5.30;99.90
52565;DHT22;38460;53.106;7.004;2023-01-26T16:10:52;5.30;99.90
52565;DHT22;38460;53.106;7.004;2023-01-26T16:13:24;5.20;99.90
52565;DHT22;38460;53.106;7.004;2023-01-26T16:15:51;5.20;99.90
52565;DHT22;38460;53.106;7.004;2023-01-26T16:18:18;5.10;99.90
52565;DHT22;38460;53.106;7.004;2023-01-26T16:20:46;5.00;99.90
52565;DHT22;38460;53.106;7.004;2023-01-26T16:23:26;4.90;99.90
52565;DHT22;38460;53.106;7.004;2023-01-26T16:25:53;5.00;99.90
52565;DHT22;38460;53.106;7.004;2023-01-26T16:28:20;4.90;99.90
52565;DHT22;38460;53.106;7.004;2023-01-26T16:30:48;4.80;99.90
52565;DHT22;38460;53.106;7.004;2023-01-26T16:33:17;4.80;99.90
52565;DHT22;38460;53.106;7.004;2023-01-26T16:35:46;4.70;99.90
52565;DHT22;38460;53.106;7.004;2023-01-26T16:38:12;4.70;99.90
52565;DHT22;38460;53.106;7.004;2023-01-26T16:40:39;4.70;99.90
52565;DHT22;38460;53.106;7.004;2023-01-26T16:43:14;4.70;99.90
52565;DHT22;38460;53.106;7.004;2023-01-26T16:45:42;4.70;99.90
52565;DHT22;38460;53.106;7.004;2023-01-26T16:48:13;4.70;99.90
52565;DHT22;38460;53.106;7.004;2023-01-26T16:50:40;4.70;99.90
52565;DHT22;38460;53.106;7.004;2023-01-26T16:53:29;4.70;99.90
52565;DHT22;38460;53.106;7.004;2023-01-26T16:55:58;4.70;99.90
52565;DHT22;38460;53.106;7.004;2023-01-26T16:58:24;4.70;99.90
52565;DHT22;38460;53.106;7.004;2023-01-26T17:00:51;4.70;99.90
52565;DHT22;38460;53.106;7.004;2023-01-26T17:03:18;4.70;99.90
52565;DHT22;38460;53.106;7.004;2023-01-26T17:05:44;4.70;99.90
52565;DHT22;38460;53.106;7.004;2023-01-26T17:08:10;4.70;99.90
52565;DHT22;38460;53.106;7.004;2023-01-26T17:10:36;4.70;99.90
52565;DHT22;38460;53.106;7.004;2023-01-26T17:13:02;4.70;99.90
52565;DHT22;38460;53.106;7.004;2023-01-26T17:15:28;4.70;99.90
52565;DHT22;38460;53.106;7.004;2023-01-26T17:17:55;4.70;99.90
52565;DHT22;38460;53.106;7.004;2023-01-26T17:20:21;4.60;99.90
52565;DHT22;38460;53.106;7.004;2023-01-26T17:22:48;4.60;99.90
52565;DHT22;38460;53.106;7.004;2023-01-26T17:25:15;4.60;99.90
52565;DHT22;38460;53.106;7.004;2023-01-26T17:27:40;4.60;99.90
52565;DHT22;38460;53.106;7.004;2023-01-26T17:30:07;4.60;99.90
52565;DHT22;38460;53.106;7.004;2023-01-26T17:32:33;4.60;99.90
52565;DHT22;38460;53.106;7.004;2023-01-26T17:34:58;4.60;99.90
52565;DHT22;38460;53.106;7.004;2023-01-26T17:37:28;4.50;99.90
52565;DHT22;38460;53.106;7.004;2023-01-26T17:39:55;4.50;99.90
52565;DHT22;38460;53.106;7.004;2023-01-26T17:42:21;4.50;99.90
52565;DHT22;38460;53.106;7.004;2023-01-26T17:44:47;4.50;99.90
52565;DHT22;38460;53.106;7.004;2023-01-26T17:47:13;4.40;99.90
52565;DHT22;38460;53.106;7.004;2023-01-26T17:49:39;4.40;99.90